Time;durP1;ratioP1;P1;durP2;ratioP2;P2;SDS_P1;SDS_P2;PMS_P1;PMS_P2;Temp;Humidity;BMP_temperature;BMP_pressure;BME280_temperature;BME280_humidity;BME280_pressure;Samples;Min_cycle;Max_cycle;Signal;HPM_P1;HPM_P2
2022/07/09 00:01:45;;;;;;;3.53;1.50;;;16.70;99.90;;;;;;5022553;28;20886;-76
2022/07/09 00:04:11;;;;;;;3.03;1.50;;;16.70;99.90;;;;;;5038612;28;20032;-76
2022/07/09 00:06:37;;;;;;;2.65;1.40;;;16.70;99.90;;;;;;5041854;28;20677;-76
2022/07/09 00:09:03;;;;;;;3.35;1.45;;;16.70;99.90;;;;;;5023557;28;20037;-76
2022/07/09 00:11:28;;;;;;;3.25;1.60;;;16.70;99.90;;;;;;5040937;28;20080;-75
2022/07/09 00:13:54;;;;;;;3.78;1.70;;;16.60;99.90;;;;;;5034197;28;20049;-76
2022/07/09 00:16:19;;;;;;;6.15;1.73;;;16.60;99.90;;;;;;5039653;28;20056;-76
2022/07/09 00:18:45;;;;;;;3.63;1.67;;;16.50;99.90;;;;;;5040932;28;20033;-76
2022/07/09 00:21:11;;;;;;;4.18;1.77;;;16.50;99.90;;;;;;5042212;28;20039;-75
2022/07/09 00:23:36;;;;;;;3.60;1.80;;;16.50;99.90;;;;;;5040841;28;20151;-75
2022/07/09 00:26:02;;;;;;;2.83;1.75;;;16.50;99.90;;;;;;5020629;28;20032;-76
2022/07/09 00:28:27;;;;;;;4.78;1.77;;;16.50;99.90;;;;;;5040483;28;20041;-76
2022/07/09 00:30:54;;;;;;;3.10;1.52;;;16.50;99.90;;;;;;5039755;28;20029;-76
2022/07/09 00:33:19;;;;;;;5.88;2.00;;;16.50;99.90;;;;;;5036747;28;20510;-76
2022/07/09 00:35:45;;;;;;;3.97;1.75;;;16.40;99.90;;;;;;5041434;28;20060;-76
2022/07/09 00:38:10;;;;;;;2.63;1.25;;;16.50;99.90;;;;;;5040294;28;20048;-75
2022/07/09 00:40:36;;;;;;;3.78;1.60;;;16.50;99.90;;;;;;5039530;28;20074;-76
2022/07/09 00:43:02;;;;;;;4.50;1.63;;;16.40;99.90;;;;;;5025023;28;20670;-76
2022/07/09 00:45:27;;;;;;;6.18;2.38;;;16.40;99.90;;;;;;5041276;28;20401;-76
2022/07/09 00:47:53;;;;;;;4.20;1.60;;;16.40;99.90;;;;;;5022530;28;20574;-76
2022/07/09 00:50:19;;;;;;;8.00;1.98;;;16.40;99.90;;;;;;5042474;28;20044;-76
2022/07/09 00:52:45;;;;;;;2.75;1.75;;;16.40;99.90;;;;;;5038204;28;20135;-76
2022/07/09 00:55:11;;;;;;;3.08;1.88;;;16.40;99.90;;;;;;5039648;28;20544;-76
2022/07/09 00:57:39;;;;;;;2.30;1.52;;;16.40;99.90;;;;;;5039137;28;20041;-76
2022/07/09 01:00:05;;;;;;;6.65;1.80;;;16.40;99.90;;;;;;5039871;28;20044;-76
2022/07/09 01:02:31;;;;;;;2.53;1.40;;;16.40;99.90;;;;;;5040182;28;20076;-76
2022/07/09 01:04:57;;;;;;;2.83;1.52;;;16.40;99.90;;;;;;5023481;28;20068;-76
2022/07/09 01:07:22;;;;;;;4.63;1.98;;;16.40;99.90;;;;;;5040022;28;20036;-76
2022/07/09 01:09:48;;;;;;;3.15;1.77;;;16.40;99.90;;;;;;5040213;28;20040;-76
2022/07/09 01:12:14;;;;;;;5.88;1.73;;;16.40;99.90;;;;;;5036062;28;21810;-76
2022/07/09 01:14:40;;;;;;;4.13;1.75;;;16.40;99.90;;;;;;5037417;28;20045;-76
2022/07/09 01:17:06;;;;;;;1.95;1.25;;;16.40;99.90;;;;;;5039452;28;20134;-76
2022/07/09 01:19:33;;;;;;;3.30;1.30;;;16.30;99.90;;;;;;5040071;28;20090;-76
2022/07/09 01:21:59;;;;;;;7.10;1.63;;;16.30;99.90;;;;;;5040351;28;20044;-76
2022/07/09 01:24:25;;;;;;;2.42;1.45;;;16.30;99.90;;;;;;5034777;28;20037;-76
2022/07/09 01:26:53;;;;;;;3.60;1.65;;;16.30;99.90;;;;;;5035714;28;20043;-76
2022/07/09 01:29:19;;;;;;;2.60;1.40;;;16.30;99.90;;;;;;5037689;28;20045;-76
2022/07/09 01:31:45;;;;;;;14.57;1.98;;;16.40;99.90;;;;;;5040254;28;20044;-76
2022/07/09 01:34:10;;;;;;;3.95;1.88;;;16.40;99.90;;;;;;5035615;28;20156;-76
2022/07/09 01:36:36;;;;;;;3.35;1.52;;;16.40;99.90;;;;;;5038307;28;20383;-76
2022/07/09 01:39:02;;;;;;;4.07;1.95;;;16.40;99.90;;;;;;5039629;28;20532;-76
2022/07/09 01:41:28;;;;;;;2.78;1.45;;;16.40;99.90;;;;;;5035716;28;20040;-76
2022/07/09 01:43:53;;;;;;;3.25;2.00;;;16.40;99.90;;;;;;5037546;28;20617;-76
2022/07/09 01:46:19;;;;;;;2.53;1.30;;;16.40;99.90;;;;;;5037150;28;20461;-76
2022/07/09 01:48:45;;;;;;;8.75;2.30;;;16.40;99.90;;;;;;5023313;28;20041;-76
2022/07/09 01:51:12;;;;;;;2.72;1.83;;;16.40;99.90;;;;;;5021779;28;20462;-76
2022/07/09 01:53:39;;;;;;;3.40;1.65;;;16.40;99.90;;;;;;5036615;28;20041;-76
2022/07/09 01:56:09;;;;;;;3.95;1.80;;;16.40;99.90;;;;;;5034737;28;20156;-76
2022/07/09 01:58:35;;;;;;;3.58;2.03;;;16.40;99.90;;;;;;5038334;28;20037;-76
2022/07/09 02:01:02;;;;;;;6.47;2.17;;;16.40;99.90;;;;;;5037537;28;20040;-76
2022/07/09 02:03:28;;;;;;;6.57;2.13;;;16.40;99.90;;;;;;5038284;28;20037;-76
2022/07/09 02:05:53;;;;;;;4.13;2.00;;;16.40;99.90;;;;;;5042406;28;20489;-76
2022/07/09 02:08:19;;;;;;;6.40;2.22;;;16.40;99.90;;;;;;5038705;28;20048;-77
2022/07/09 02:10:45;;;;;;;3.58;1.90;;;16.30;99.90;;;;;;5037457;28;20533;-76
2022/07/09 02:13:12;;;;;;;3.17;1.95;;;16.40;99.90;;;;;;5036489;28;20067;-76
2022/07/09 02:15:38;;;;;;;4.38;1.70;;;16.40;99.90;;;;;;5037988;28;20076;-76
2022/07/09 02:18:04;;;;;;;4.82;2.05;;;16.40;99.90;;;;;;5039388;28;20065;-76
2022/07/09 02:20:29;;;;;;;4.40;2.40;;;16.40;99.90;;;;;;5038002;28;20524;-76
2022/07/09 02:22:55;;;;;;;4.32;2.08;;;16.40;99.90;;;;;;5021324;28;20037;-76
2022/07/09 02:25:21;;;;;;;6.47;2.65;;;16.30;99.90;;;;;;5038632;28;20039;-76
2022/07/09 02:27:46;;;;;;;5.80;2.70;;;16.30;99.90;;;;;;5035475;28;20037;-76
2022/07/09 02:30:12;;;;;;;3.40;1.92;;;16.30;99.90;;;;;;5038531;28;20095;-76
2022/07/09 02:32:39;;;;;;;3.30;2.03;;;16.30;99.90;;;;;;5034161;28;20509;-76
2022/07/09 02:35:05;;;;;;;4.47;2.15;;;16.20;99.90;;;;;;5037883;28;20064;-76
2022/07/09 02:37:31;;;;;;;4.35;2.08;;;16.20;99.90;;;;;;5035393;28;20471;-76
2022/07/09 02:39:57;;;;;;;2.75;1.90;;;16.20;99.90;;;;;;5054230;28;20033;-76
2022/07/09 02:42:23;;;;;;;4.40;1.95;;;16.20;99.90;;;;;;5035335;28;20379;-75
2022/07/09 02:44:49;;;;;;;5.95;1.80;;;16.20;99.90;;;;;;5038259;28;20052;-75
2022/07/09 02:47:14;;;;;;;5.13;1.92;;;16.20;99.90;;;;;;5038261;28;20040;-76
2022/07/09 02:49:40;;;;;;;3.65;1.90;;;16.20;99.90;;;;;;5037882;28;20766;-76
2022/07/09 02:52:06;;;;;;;4.28;1.80;;;16.20;99.90;;;;;;5051871;28;20040;-76
2022/07/09 02:54:32;;;;;;;5.43;2.53;;;16.20;99.90;;;;;;5039553;28;20546;-75
2022/07/09 02:56:57;;;;;;;8.02;1.98;;;16.20;99.90;;;;;;5033744;28;20505;-76
2022/07/09 02:59:23;;;;;;;3.85;1.77;;;16.20;99.90;;;;;;5037095;28;20041;-76
2022/07/09 03:01:49;;;;;;;3.67;1.80;;;16.20;99.90;;;;;;5032703;28;20957;-76
2022/07/09 03:04:14;;;;;;;4.95;1.50;;;16.20;99.90;;;;;;5035936;28;20068;-76
2022/07/09 03:06:40;;;;;;;5.32;1.80;;;16.20;99.90;;;;;;5037252;28;20041;-76
2022/07/09 03:09:06;;;;;;;7.20;1.75;;;16.20;99.90;;;;;;5037889;28;20033;-76
2022/07/09 03:11:32;;;;;;;5.43;2.08;;;16.20;99.90;;;;;;5036264;28;20128;-75
2022/07/09 03:13:57;;;;;;;3.45;1.85;;;16.20;99.90;;;;;;5036086;28;20688;-76
2022/07/09 03:16:23;;;;;;;3.10;1.58;;;16.30;99.90;;;;;;5039211;28;20033;-75
2022/07/09 03:18:48;;;;;;;3.47;1.73;;;16.20;99.90;;;;;;5020801;28;20191;-75
2022/07/09 03:21:14;;;;;;;3.13;1.58;;;16.20;99.90;;;;;;5036078;28;20037;-76
2022/07/09 03:23:40;;;;;;;4.13;1.52;;;16.20;99.90;;;;;;5037553;28;20125;-76
2022/07/09 03:26:06;;;;;;;3.13;1.30;;;16.20;99.90;;;;;;5034883;28;20068;-76
2022/07/09 03:28:32;;;;;;;2.70;1.40;;;16.20;99.90;;;;;;5053113;28;20504;-76
2022/07/09 03:30:58;;;;;;;3.25;1.50;;;16.30;99.90;;;;;;5019225;28;20110;-76
2022/07/09 03:33:23;;;;;;;3.55;1.23;;;16.30;99.90;;;;;;5019726;28;20056;-76
2022/07/09 03:35:49;;;;;;;3.47;1.55;;;16.20;99.90;;;;;;5037594;28;20037;-75
2022/07/09 03:38:15;;;;;;;3.63;1.10;;;16.30;99.90;;;;;;5036160;28;20079;-76
2022/07/09 03:40:40;;;;;;;4.10;1.50;;;16.20;99.90;;;;;;5032937;28;20048;-76
2022/07/09 03:43:06;;;;;;;2.38;1.33;;;16.30;99.90;;;;;;5035709;28;20041;-76
2022/07/09 03:45:32;;;;;;;3.05;1.20;;;16.20;99.90;;;;;;5036713;28;20396;-76
2022/07/09 03:47:57;;;;;;;4.80;1.58;;;16.20;99.90;;;;;;5041056;28;20060;-75
2022/07/09 03:50:23;;;;;;;4.82;1.10;;;16.20;99.90;;;;;;5041594;28;20116;-76
2022/07/09 03:52:49;;;;;;;3.25;1.20;;;16.20;99.90;;;;;;5040704;28;20037;-76
2022/07/09 03:55:15;;;;;;;3.85;1.40;;;16.20;99.90;;;;;;5023267;28;20052;-75
2022/07/09 03:57:42;;;;;;;3.35;1.33;;;16.20;99.90;;;;;;5022935;28;20037;-76
2022/07/09 04:00:08;;;;;;;5.70;1.50;;;16.20;99.90;;;;;;5033213;28;21350;-76
2022/07/09 04:02:33;;;;;;;3.58;1.23;;;16.20;99.90;;;;;;5019310;28;20094;-75
2022/07/09 04:04:59;;;;;;;2.95;1.25;;;16.20;99.90;;;;;;5040443;28;20033;-76
2022/07/09 04:07:26;;;;;;;2.22;0.90;;;16.20;99.90;;;;;;5041712;28;20037;-76
2022/07/09 04:09:55;;;;;;;2.22;1.20;;;16.30;99.90;;;;;;5037881;28;21035;-76
2022/07/09 04:12:21;;;;;;;3.10;0.98;;;16.20;99.90;;;;;;5023278;28;20067;-76
2022/07/09 04:14:47;;;;;;;4.40;1.30;;;16.20;99.90;;;;;;5042968;28;20036;-76
2022/07/09 04:17:12;;;;;;;4.95;1.52;;;16.20;99.90;;;;;;5042811;28;20044;-76
2022/07/09 04:19:38;;;;;;;3.85;1.52;;;16.20;99.90;;;;;;5041239;28;20053;-76
2022/07/09 04:22:04;;;;;;;2.08;0.98;;;16.20;99.90;;;;;;5040795;28;20641;-76
2022/07/09 04:24:30;;;;;;;2.00;1.02;;;16.20;99.90;;;;;;5038338;28;20452;-76
2022/07/09 04:26:56;;;;;;;3.35;1.08;;;16.20;99.90;;;;;;5024158;28;20040;-76
2022/07/09 04:29:22;;;;;;;2.85;1.20;;;16.20;99.90;;;;;;5040075;28;20051;-76
2022/07/09 04:31:47;;;;;;;1.65;1.00;;;16.30;99.90;;;;;;5021474;28;20414;-76
2022/07/09 04:34:13;;;;;;;3.72;1.02;;;16.30;99.90;;;;;;5025027;28;20061;-76
2022/07/09 04:36:39;;;;;;;2.88;1.20;;;16.20;99.90;;;;;;5036322;28;20036;-76
2022/07/09 04:39:04;;;;;;;2.95;1.50;;;16.30;99.90;;;;;;5040091;28;20041;-76
2022/07/09 04:41:30;;;;;;;5.13;1.60;;;16.30;99.90;;;;;;5040446;28;20387;-76
2022/07/09 04:43:56;;;;;;;3.20;1.48;;;16.40;99.90;;;;;;5044178;28;20082;-76
2022/07/09 04:46:22;;;;;;;4.05;1.40;;;16.40;99.90;;;;;;5023552;28;20029;-76
2022/07/09 04:48:48;;;;;;;3.92;1.30;;;16.40;99.90;;;;;;5021164;28;20577;-76
2022/07/09 04:51:13;;;;;;;3.75;1.88;;;16.40;99.90;;;;;;5040326;28;20040;-75
2022/07/09 04:53:39;;;;;;;4.60;1.30;;;16.40;99.90;;;;;;5039886;28;20716;-76
2022/07/09 04:56:06;;;;;;;2.17;1.00;;;16.50;99.90;;;;;;5039585;28;20083;-76
2022/07/09 04:58:32;;;;;;;3.92;1.52;;;16.50;99.90;;;;;;5024796;28;20632;-76
2022/07/09 05:00:58;;;;;;;3.63;1.65;;;16.50;99.90;;;;;;5039575;28;20044;-76
2022/07/09 05:03:24;;;;;;;2.80;1.13;;;16.50;99.90;;;;;;5039391;28;20072;-76
2022/07/09 05:05:50;;;;;;;2.90;1.45;;;16.60;99.90;;;;;;5038139;28;20064;-76
2022/07/09 05:08:16;;;;;;;3.95;1.38;;;16.60;99.90;;;;;;5039269;28;20043;-76
2022/07/09 05:10:42;;;;;;;4.13;1.52;;;16.60;99.90;;;;;;5040422;28;20037;-76
2022/07/09 05:13:08;;;;;;;4.55;1.40;;;16.60;99.90;;;;;;5040012;28;20064;-76
2022/07/09 05:15:33;;;;;;;2.70;1.38;;;16.60;99.90;;;;;;5038274;28;20120;-76
2022/07/09 05:17:59;;;;;;;4.32;1.55;;;16.60;99.90;;;;;;5036653;28;20568;-76
2022/07/09 05:20:25;;;;;;;5.13;2.08;;;16.60;99.90;;;;;;5035556;28;20036;-75
2022/07/09 05:22:51;;;;;;;2.88;1.25;;;16.60;99.90;;;;;;5038194;28;20045;-75
2022/07/09 05:25:16;;;;;;;4.70;1.55;;;16.60;99.90;;;;;;5040303;28;20124;-76
2022/07/09 05:27:43;;;;;;;2.75;1.23;;;16.70;99.90;;;;;;5019410;28;20138;-76
2022/07/09 05:30:09;;;;;;;3.83;1.67;;;16.70;99.90;;;;;;5038397;28;20029;-76
2022/07/09 05:32:35;;;;;;;4.10;1.60;;;16.80;99.90;;;;;;5038378;28;20047;-75
2022/07/09 05:35:01;;;;;;;2.90;1.50;;;16.80;99.90;;;;;;5040174;28;20406;-76
2022/07/09 05:37:26;;;;;;;3.90;1.92;;;16.80;99.90;;;;;;5038562;28;20044;-75
2022/07/09 05:39:52;;;;;;;3.45;1.67;;;16.90;99.90;;;;;;5037941;28;20488;-76
2022/07/09 05:42:17;;;;;;;3.80;2.03;;;16.90;99.90;;;;;;5024885;28;20040;-76
2022/07/09 05:44:43;;;;;;;5.93;1.80;;;17.00;99.90;;;;;;5038141;28;20477;-75
2022/07/09 05:47:08;;;;;;;3.60;1.38;;;17.00;99.90;;;;;;5037914;28;20039;-76
2022/07/09 05:49:34;;;;;;;3.95;1.38;;;17.00;99.90;;;;;;5017569;28;20041;-76
2022/07/09 05:52:00;;;;;;;4.43;1.60;;;17.10;99.90;;;;;;5037749;28;20124;-76
2022/07/09 05:54:25;;;;;;;3.50;1.65;;;17.20;99.90;;;;;;5035898;28;20064;-76
2022/07/09 05:56:51;;;;;;;4.93;1.63;;;17.10;99.90;;;;;;5036004;28;20042;-76
2022/07/09 05:59:17;;;;;;;4.28;1.52;;;17.10;99.90;;;;;;5037408;28;20087;-76
2022/07/09 06:01:42;;;;;;;2.92;1.15;;;17.20;99.90;;;;;;5039999;28;20041;-76
2022/07/09 06:04:09;;;;;;;2.55;1.20;;;17.30;99.90;;;;;;5039446;28;20033;-76
2022/07/09 06:06:35;;;;;;;2.92;1.38;;;17.30;99.90;;;;;;5039754;28;20032;-76
2022/07/09 06:09:00;;;;;;;2.70;1.38;;;17.30;99.90;;;;;;5037427;28;20432;-76
2022/07/09 06:11:26;;;;;;;3.40;1.30;;;17.40;99.90;;;;;;5033844;28;20037;-76
2022/07/09 06:13:52;;;;;;;2.78;1.27;;;17.40;99.90;;;;;;5034849;28;20927;-77
2022/07/09 06:16:18;;;;;;;5.00;1.48;;;17.40;99.90;;;;;;5055844;28;20090;-77
2022/07/09 06:18:43;;;;;;;2.20;1.10;;;17.40;99.90;;;;;;5035251;28;20071;-75
2022/07/09 06:21:09;;;;;;;2.25;1.13;;;17.40;99.90;;;;;;5019654;28;20037;-70
2022/07/09 06:23:35;;;;;;;2.90;1.35;;;17.40;99.90;;;;;;5033512;28;20498;-76
2022/07/09 06:26:00;;;;;;;2.63;1.13;;;17.50;99.90;;;;;;5037095;28;20493;-76
2022/07/09 06:28:26;;;;;;;3.38;1.52;;;17.40;99.90;;;;;;5037545;28;20055;-76
2022/07/09 06:30:51;;;;;;;2.10;0.93;;;17.40;99.90;;;;;;5038282;28;20439;-76
2022/07/09 06:33:17;;;;;;;3.50;1.52;;;17.40;99.90;;;;;;5017830;28;20033;-77
2022/07/09 06:35:43;;;;;;;4.50;1.33;;;17.40;99.90;;;;;;5037041;28;20040;-76
2022/07/09 06:38:08;;;;;;;5.30;1.17;;;17.40;99.90;;;;;;5037989;28;20130;-78
2022/07/09 06:40:34;;;;;;;3.22;1.23;;;17.40;99.90;;;;;;5034558;28;20045;-78
2022/07/09 06:43:00;;;;;;;2.33;1.05;;;17.50;99.90;;;;;;5035781;28;20037;-77
2022/07/09 06:45:25;;;;;;;2.50;1.17;;;17.50;99.90;;;;;;5034908;28;20481;-77
2022/07/09 06:47:52;;;;;;;2.78;1.00;;;17.50;99.90;;;;;;5035548;28;20030;-78
2022/07/09 06:50:18;;;;;;;3.10;1.27;;;17.50;99.90;;;;;;5037525;28;20257;-77
2022/07/09 06:52:44;;;;;;;1.98;1.15;;;17.50;99.90;;;;;;5025511;28;20056;-78
2022/07/09 06:55:10;;;;;;;2.95;1.25;;;17.50;99.90;;;;;;5038824;28;20071;-78
2022/07/09 06:57:36;;;;;;;2.97;0.95;;;17.60;99.90;;;;;;5036902;28;20067;-77
2022/07/09 07:00:04;;;;;;;4.32;1.20;;;17.50;99.90;;;;;;5036582;28;20037;-76
2022/07/09 07:02:30;;;;;;;2.33;1.10;;;17.60;99.90;;;;;;5035870;28;20045;-71
2022/07/09 07:04:55;;;;;;;4.25;1.17;;;17.60;99.90;;;;;;5034084;28;20060;-78
2022/07/09 07:07:21;;;;;;;2.72;1.35;;;17.60;99.90;;;;;;5031705;28;20151;-72
2022/07/09 07:09:47;;;;;;;3.63;1.02;;;17.70;99.90;;;;;;5036955;28;20037;-77
2022/07/09 07:12:12;;;;;;;2.92;1.40;;;17.70;99.90;;;;;;5032293;28;20048;-78
2022/07/09 07:14:38;;;;;;;3.42;1.13;;;17.70;99.90;;;;;;5044672;28;20456;-77
2022/07/09 07:17:04;;;;;;;2.33;1.08;;;17.70;99.90;;;;;;5044970;28;20174;-77
2022/07/09 07:19:29;;;;;;;2.83;1.20;;;17.70;99.90;;;;;;5045685;28;20045;-77
2022/07/09 07:21:55;;;;;;;2.25;1.00;;;17.70;99.90;;;;;;5045690;28;20063;-78
2022/07/09 07:24:20;;;;;;;2.33;1.20;;;17.70;99.90;;;;;;5049081;28;20029;-77
2022/07/09 07:26:46;;;;;;;2.00;1.30;;;17.70;99.90;;;;;;5047342;28;20063;-78
2022/07/09 07:29:12;;;;;;;2.70;1.00;;;17.70;99.90;;;;;;5066303;28;20037;-78
2022/07/09 07:31:37;;;;;;;1.85;1.00;;;17.70;99.90;;;;;;5049599;28;20043;-78
2022/07/09 07:34:03;;;;;;;2.58;0.68;;;17.60;99.90;;;;;;5049803;28;20041;-78
2022/07/09 07:36:28;;;;;;;2.10;0.93;;;17.70;99.90;;;;;;5049095;28;20041;-78
2022/07/09 07:38:54;;;;;;;2.15;1.15;;;17.70;99.90;;;;;;5049931;28;20025;-78
2022/07/09 07:41:20;;;;;;;1.50;0.90;;;17.70;99.90;;;;;;5047846;28;20516;-78
2022/07/09 07:43:47;;;;;;;2.55;0.82;;;17.70;99.90;;;;;;5048606;28;20123;-78
2022/07/09 07:46:13;;;;;;;1.98;0.85;;;17.80;99.90;;;;;;5049239;28;20144;-78
2022/07/09 07:48:41;;;;;;;2.30;1.08;;;17.80;99.90;;;;;;5047953;28;20033;-79
2022/07/09 07:51:07;;;;;;;1.63;0.85;;;17.80;99.90;;;;;;5049462;28;20429;-78
2022/07/09 07:53:33;;;;;;;3.35;0.90;;;18.00;99.90;;;;;;5049619;28;20516;-78
2022/07/09 07:56:06;;;;;;;1.30;0.70;;;18.00;99.90;;;;;;5048422;28;20124;-78
2022/07/09 07:58:32;;;;;;;1.27;0.43;;;18.10;99.90;;;;;;5048485;28;20071;-78
2022/07/09 08:00:58;;;;;;;1.73;0.65;;;18.10;99.90;;;;;;5047211;28;20062;-79
2022/07/09 08:03:24;;;;;;;0.85;0.60;;;18.20;99.90;;;;;;5048114;28;20037;-79
2022/07/09 08:05:50;;;;;;;5.93;0.80;;;18.20;99.90;;;;;;5048834;28;20124;-78
2022/07/09 08:08:18;;;;;;;1.50;0.88;;;18.30;99.90;;;;;;5048093;28;20097;-79
2022/07/09 08:10:45;;;;;;;2.95;0.95;;;18.30;99.90;;;;;;5049497;28;20037;-79
2022/07/09 08:13:11;;;;;;;1.45;0.70;;;18.40;99.90;;;;;;5047852;28;20049;-79
2022/07/09 08:15:37;;;;;;;1.58;0.80;;;18.70;99.90;;;;;;5049265;28;20078;-79
2022/07/09 08:18:03;;;;;;;1.58;0.70;;;18.80;99.90;;;;;;5045654;28;20052;-78
2022/07/09 08:20:29;;;;;;;2.47;0.65;;;19.00;99.90;;;;;;5050451;28;20040;-78
2022/07/09 08:22:54;;;;;;;1.67;0.70;;;19.00;99.90;;;;;;5048771;28;20482;-78
2022/07/09 08:25:20;;;;;;;1.55;0.70;;;19.10;99.90;;;;;;5048876;28;20029;-78
2022/07/09 08:27:46;;;;;;;1.23;0.70;;;19.20;99.90;;;;;;5047345;28;20037;-79
2022/07/09 08:30:11;;;;;;;0.85;0.52;;;19.30;99.90;;;;;;5048567;28;20024;-79
2022/07/09 08:32:38;;;;;;;2.55;0.70;;;19.30;99.90;;;;;;5047994;28;20506;-78
2022/07/09 08:35:05;;;;;;;2.17;0.57;;;19.20;99.90;;;;;;5047735;28;20056;-79
2022/07/09 08:37:30;;;;;;;1.00;0.50;;;19.30;99.90;;;;;;5038236;28;20033;-80
2022/07/09 08:39:56;;;;;;;2.83;0.68;;;19.30;99.90;;;;;;5023459;28;20111;-76
2022/07/09 08:42:22;;;;;;;2.92;0.73;;;19.30;99.90;;;;;;5045358;28;20048;-80
2022/07/09 08:44:48;;;;;;;2.08;0.80;;;19.40;99.90;;;;;;5038630;28;20040;-80
2022/07/09 08:47:15;;;;;;;1.73;0.82;;;19.50;99.90;;;;;;5024060;28;20410;-79
2022/07/09 08:49:42;;;;;;;1.60;0.60;;;19.50;99.90;;;;;;5041230;28;20048;-80
2022/07/09 08:52:08;;;;;;;2.85;0.50;;;19.50;99.90;;;;;;5026883;28;20152;-79
2022/07/09 08:54:37;;;;;;;1.10;0.80;;;19.50;99.90;;;;;;5038559;28;20047;-80
2022/07/09 08:57:04;;;;;;;1.48;0.50;;;19.60;99.90;;;;;;5041401;28;20044;-80
2022/07/09 08:59:30;;;;;;;0.90;0.40;;;19.60;99.90;;;;;;5042034;28;20644;-79
2022/07/09 09:01:55;;;;;;;0.65;0.30;;;19.60;99.90;;;;;;5039803;28;20048;-80
2022/07/09 09:04:21;;;;;;;1.23;0.60;;;19.60;99.90;;;;;;5036817;28;20041;-80
2022/07/09 09:06:47;;;;;;;1.23;0.40;;;19.50;99.90;;;;;;5041921;28;20426;-80
2022/07/09 09:09:18;;;;;;;1.90;0.68;;;19.40;99.90;;;;;;5041675;28;20029;-80
2022/07/09 09:11:49;;;;;;;1.02;0.52;;;19.30;99.90;;;;;;5044019;28;20056;-80
2022/07/09 09:14:22;;;;;;;1.00;0.73;;;19.20;99.90;;;;;;5039579;28;20090;-80
2022/07/09 09:16:48;;;;;;;1.42;0.50;;;19.20;99.90;;;;;;5039349;28;20037;-80
2022/07/09 09:19:14;;;;;;;0.30;0.30;;;19.30;99.90;;;;;;5041401;28;20043;-80
2022/07/09 09:21:39;;;;;;;0.77;0.40;;;19.30;99.90;;;;;;5037568;28;20036;-81
2022/07/09 09:24:06;;;;;;;0.55;0.40;;;19.40;99.90;;;;;;5027755;28;20045;-80
2022/07/09 09:26:33;;;;;;;2.25;0.80;;;19.50;99.90;;;;;;5040502;28;20037;-82
2022/07/09 09:29:03;;;;;;;1.38;0.55;;;19.70;99.90;;;;;;5044312;28;20036;-80
2022/07/09 09:31:36;;;;;;;1.08;0.70;;;19.80;99.90;;;;;;5043996;28;20037;-80
2022/07/09 09:34:12;;;;;;;1.30;0.50;;;19.90;99.90;;;;;;5046230;28;20041;-80
2022/07/09 09:36:42;;;;;;;1.38;0.50;;;19.90;99.90;;;;;;5028333;28;20593;-80
2022/07/09 09:39:27;;;;;;;0.80;0.47;;;19.90;99.90;;;;;;5045661;28;20041;-81
2022/07/09 09:42:01;;;;;;;1.27;0.40;;;19.90;99.90;;;;;;5058992;28;20064;-81
2022/07/09 09:44:37;;;;;;;0.70;0.40;;;19.90;99.90;;;;;;5044745;28;20048;-80
2022/07/09 09:47:04;;;;;;;1.25;0.43;;;19.90;99.90;;;;;;5044141;28;20036;-80
2022/07/09 09:49:29;;;;;;;1.05;0.40;;;19.80;99.90;;;;;;5046357;28;20033;-81
2022/07/09 09:52:07;;;;;;;0.57;0.30;;;19.70;99.90;;;;;;5040819;28;20367;-80
2022/07/09 09:54:33;;;;;;;0.98;0.45;;;19.60;99.90;;;;;;5042174;28;20044;-80
2022/07/09 09:57:00;;;;;;;1.00;0.50;;;19.60;99.90;;;;;;5044121;28;20033;-81
2022/07/09 09:59:25;;;;;;;3.58;0.30;;;19.50;99.90;;;;;;5041921;28;20110;-80
2022/07/09 10:01:51;;;;;;;0.80;0.55;;;19.80;99.90;;;;;;5043847;28;20450;-81
2022/07/09 10:04:18;;;;;;;0.35;0.20;;;19.80;99.90;;;;;;5045793;28;20437;-81
2022/07/09 10:06:44;;;;;;;1.85;0.35;;;19.90;99.90;;;;;;5042658;28;20429;-81
2022/07/09 10:09:14;;;;;;;0.50;0.40;;;20.10;99.90;;;;;;5046368;28;20124;-81
2022/07/09 10:11:46;;;;;;;0.45;0.40;;;20.00;99.90;;;;;;5041231;28;20441;-81
2022/07/09 10:14:24;;;;;;;1.95;0.50;;;20.10;99.90;;;;;;5038015;28;20056;-80
2022/07/09 10:16:52;;;;;;;1.67;0.40;;;20.10;99.90;;;;;;5040675;28;20040;-80
2022/07/09 10:19:25;;;;;;;0.57;0.40;;;20.10;99.90;;;;;;5037098;28;20076;-80
2022/07/09 10:21:53;;;;;;;0.45;0.25;;;20.20;99.90;;;;;;5023280;28;20116;-80
2022/07/09 10:24:30;;;;;;;0.77;0.32;;;20.30;99.90;;;;;;5040601;28;20045;-79
2022/07/09 10:27:07;;;;;;;1.35;0.50;;;20.20;98.90;;;;;;5040020;28;20814;-80
2022/07/09 10:29:35;;;;;;;4.63;0.47;;;20.00;99.90;;;;;;5036955;28;20048;-78
2022/07/09 10:32:04;;;;;;;2.05;0.80;;;20.00;99.90;;;;;;5042744;28;20043;-81
2022/07/09 10:34:47;;;;;;;0.25;0.25;;;20.00;99.90;;;;;;5038653;28;20493;-79
2022/07/09 10:37:13;;;;;;;0.82;0.43;;;20.10;99.90;;;;;;5038952;28;20049;-80
2022/07/09 10:39:39;;;;;;;1.17;0.38;;;20.10;99.90;;;;;;5024403;28;20426;-80
2022/07/09 10:42:18;;;;;;;1.73;0.57;;;20.00;99.90;;;;;;5041930;28;20079;-80
2022/07/09 10:44:45;;;;;;;1.73;0.47;;;19.90;97.00;;;;;;5039354;28;20094;-80
2022/07/09 10:47:12;;;;;;;2.90;0.88;;;20.00;99.90;;;;;;5044412;28;20522;-79
2022/07/09 10:49:38;;;;;;;0.60;0.40;;;20.00;99.90;;;;;;5038753;28;20036;-80
2022/07/09 10:52:05;;;;;;;0.65;0.40;;;20.00;99.90;;;;;;5035603;28;20061;-79
2022/07/09 10:54:30;;;;;;;2.38;0.70;;;20.00;99.90;;;;;;5034243;28;20051;-81
2022/07/09 10:56:57;;;;;;;2.45;0.50;;;20.10;99.90;;;;;;5018984;28;20114;-80
2022/07/09 10:59:24;;;;;;;1.20;0.40;;;20.20;99.90;;;;;;5018013;28;20536;-79
2022/07/09 11:01:51;;;;;;;0.38;0.20;;;20.30;99.50;;;;;;5034701;28;20087;-76
2022/07/09 11:04:31;;;;;;;1.70;0.40;;;20.30;99.70;;;;;;5037888;28;20044;-72
2022/07/09 11:06:58;;;;;;;1.20;0.50;;;20.40;98.70;;;;;;5033148;28;20199;-79
2022/07/09 11:09:30;;;;;;;0.80;0.40;;;20.50;99.90;;;;;;5028012;28;20605;-79
2022/07/09 11:11:56;;;;;;;1.33;0.50;;;20.50;97.50;;;;;;5043673;28;20633;-78
2022/07/09 11:14:22;;;;;;;1.95;0.40;;;20.50;99.30;;;;;;5045377;28;20033;-80
2022/07/09 11:16:56;;;;;;;1.55;0.50;;;20.40;99.50;;;;;;5045766;28;20029;-79
2022/07/09 11:19:21;;;;;;;1.38;0.60;;;20.30;99.90;;;;;;5045952;28;20043;-79
2022/07/09 11:21:48;;;;;;;3.85;0.60;;;20.20;99.90;;;;;;5044390;28;20037;-80
2022/07/09 11:24:23;;;;;;;1.30;0.50;;;20.20;99.90;;;;;;5046318;28;20047;-80
2022/07/09 11:26:49;;;;;;;2.95;0.40;;;20.10;99.90;;;;;;5045105;28;20498;-79
2022/07/09 11:29:17;;;;;;;0.93;0.63;;;20.00;99.90;;;;;;5044891;28;20048;-79
2022/07/09 11:31:52;;;;;;;2.05;0.50;;;19.90;99.90;;;;;;5045240;28;20059;-79
2022/07/09 11:34:19;;;;;;;1.40;0.43;;;19.90;99.90;;;;;;5046274;28;20044;-80
2022/07/09 11:36:53;;;;;;;1.00;0.50;;;19.90;99.90;;;;;;5046121;28;20064;-78
2022/07/09 11:39:29;;;;;;;0.47;0.28;;;19.90;98.90;;;;;;5046087;28;20090;-79
2022/07/09 11:41:56;;;;;;;0.93;0.40;;;19.80;99.90;;;;;;5025781;28;20413;-78
2022/07/09 11:44:24;;;;;;;2.15;0.52;;;19.80;99.90;;;;;;5045157;28;20490;-79
2022/07/09 11:47:06;;;;;;;1.05;0.45;;;19.70;99.90;;;;;;5045983;28;20040;-80
2022/07/09 11:49:40;;;;;;;1.15;0.52;;;19.70;99.60;;;;;;5046218;28;20403;-79
2022/07/09 11:52:24;;;;;;;3.17;0.60;;;19.80;99.90;;;;;;5044482;28;20037;-79
2022/07/09 11:55:08;;;;;;;2.38;0.52;;;19.80;99.10;;;;;;5045992;28;20110;-79
2022/07/09 11:57:35;;;;;;;1.73;0.45;;;19.80;99.90;;;;;;5027577;28;20038;-79
2022/07/09 12:00:04;;;;;;;1.00;0.60;;;19.80;99.90;;;;;;5047308;28;20087;-79
2022/07/09 12:02:32;;;;;;;1.15;0.38;;;19.80;99.90;;;;;;5043908;28;20091;-79
2022/07/09 12:04:59;;;;;;;0.73;0.40;;;19.70;99.90;;;;;;5046266;28;20036;-79
2022/07/09 12:07:24;;;;;;;2.58;0.50;;;19.80;99.90;;;;;;5028589;28;20064;-79
2022/07/09 12:10:10;;;;;;;0.77;0.30;;;19.70;99.50;;;;;;5049235;28;20433;-79
2022/07/09 12:12:36;;;;;;;1.80;0.47;;;19.50;98.90;;;;;;5046045;28;20508;-78
2022/07/09 12:15:04;;;;;;;0.82;0.40;;;19.50;99.80;;;;;;5043665;28;20481;-79
2022/07/09 12:17:30;;;;;;;1.00;0.47;;;19.60;99.80;;;;;;5049883;28;20059;-79
2022/07/09 12:19:58;;;;;;;1.52;0.30;;;19.60;99.50;;;;;;5049520;28;20076;-79
2022/07/09 12:22:24;;;;;;;0.43;0.17;;;19.70;99.00;;;;;;5048540;28;20387;-79
2022/07/09 12:24:53;;;;;;;1.83;0.28;;;19.70;98.80;;;;;;5049629;28;20179;-79
2022/07/09 12:27:22;;;;;;;2.78;0.30;;;19.80;98.40;;;;;;5048472;28;20033;-79
2022/07/09 12:29:48;;;;;;;0.63;0.30;;;19.80;98.10;;;;;;5031008;28;20040;-79
2022/07/09 12:32:13;;;;;;;0.10;0.10;;;19.80;97.30;;;;;;5047058;28;20039;-79
2022/07/09 12:34:39;;;;;;;0.68;0.35;;;19.80;96.70;;;;;;5046821;28;20033;-79
2022/07/09 12:37:05;;;;;;;0.32;0.13;;;19.80;95.90;;;;;;5048353;28;20075;-79
2022/07/09 12:39:30;;;;;;;2.58;0.50;;;19.80;96.00;;;;;;5048688;28;20044;-79
2022/07/09 12:41:56;;;;;;;0.75;0.20;;;19.70;95.20;;;;;;5030485;28;20064;-79
2022/07/09 12:44:22;;;;;;;0.55;0.20;;;19.60;95.70;;;;;;5043872;28;20143;-78
2022/07/09 12:46:48;;;;;;;0.50;0.20;;;19.70;95.50;;;;;;5048946;28;20029;-79